Flight Track Log - Related Links

Times and Time Zones

All times are in EDT time to prevent confusion due to time zone crossing. See the N1926A flight status page for this flight to view local times or setup timezone preferences in your user account.

Time Position Orientation Groundspeed Altitude Reporting Facility
EDT Latitude Longitude Course Direction KTS MPH feet Rate Location/Type
Wed 04:53:00 PM 32.3969 -86.1215 246° West  Level FlightAware
Wed 04:54:00 PM 32.3804 -86.1644 245° Southwest  Level FlightAware
Wed 04:55:00 PM 32.3667 -86.2079 270° West  Level FlightAware
Wed 04:56:00 PM 32.3479 -86.2479 235° Southwest  Level FlightAware
Wed 04:57:00 PM 32.3249 -86.2863 235° Southwest  Level FlightAware
Wed 04:58:00 PM 32.3108 -86.3294 257° West  Level FlightAware
Wed 04:59:00 PM 32.3016 -86.3751 257° West  Level FlightAware
Wed 05:00:00 PM 32.3000 -86.3833 257° West  Level FlightAware
Wed 05:01:00 PM 32.3006 -86.3940 257° West  Level Estimated
Wed 05:02:00 PM 32.3006 -86.3940 257° West  Level Estimated
Wed 05:03:00 PM 32.3006 -86.3940 257° West  Level Estimated
Wed 05:04:00 PM 32.3006 -86.3940 257° West  Level Estimated
Wed 05:05:00 PM 32.3006 -86.3940 257° West  Level Estimated
Wed 05:06:00 PM 32.3006 -86.3940 257° West  Level Estimated
Wed 05:07:00 PM 32.3006 -86.3940 257° West  Level Estimated
Wed 05:08:00 PM 32.3006 -86.3940 257° West  Level Estimated
Wed 05:09:00 PM 32.3006 -86.3940 257° West  Level Estimated
Wed 05:10:00 PM 32.3006 -86.3940 257° West  Level Estimated
Wed 05:11:00 PM 32.3006 -86.3940 257° West  Level Estimated
Wed 05:12:00 PM 32.3006 -86.3940 257° West  Level Estimated
Wed 05:13:00 PM 32.3006 -86.3940 257° West  Level Estimated
Wed 05:14:00 PM 32.3006 -86.3940 257° West  Level Estimated
Wed 05:15:00 PM 32.3006 -86.3940 257° West  Level Estimated

Login

Don't have an account? Register now (free) for customized features, flight alerts, and more!